Time;durP1;ratioP1;P1;durP2;ratioP2;P2;SDS_P1;SDS_P2;PMS_P1;PMS_P2;Temp;Humidity;BMP_temperature;BMP_pressure;BME280_temperature;BME280_humidity;BME280_pressure;Samples;Min_cycle;Max_cycle;Signal;HPM_P1;HPM_P2
2022/10/23 00:01:35;;;;;;;0.50;0.20;;;;;;;22.26;100.00;99053.41;7391507;19;20428;-82
2022/10/23 00:04:25;;;;;;;0.63;0.15;;;;;;;22.24;100.00;99042.63;7391157;19;20041;-81
2022/10/23 00:06:51;;;;;;;0.10;0.08;;;;;;;22.26;100.00;99039.94;7393089;19;20025;-81
2022/10/23 00:09:20;;;;;;;0.63;0.40;;;;;;;22.32;100.00;99037.66;7395610;19;20051;-81
2022/10/23 00:11:48;;;;;;;7.88;0.80;;;;;;;22.43;100.00;99047.81;7393554;19;20022;-82
2022/10/23 00:14:17;;;;;;;1.45;1.10;;;;;;;22.46;100.00;99050.25;7394021;19;20647;-81
2022/10/23 00:16:44;;;;;;;0.20;0.17;;;;;;;22.46;100.00;99038.13;7390702;19;20054;-81
2022/10/23 00:19:10;;;;;;;1.05;0.35;;;;;;;22.41;100.00;99039.88;7395051;19;20030;-82
2022/10/23 00:21:36;;;;;;;1.23;0.10;;;;;;;22.33;100.00;99036.31;7390078;19;20536;-81
2022/10/23 00:24:03;;;;;;;1.08;0.20;;;;;;;22.40;100.00;99038.38;7392245;19;20366;-82
2022/10/23 00:26:30;;;;;;;0.50;0.20;;;;;;;22.19;100.00;99032.25;7390408;19;20023;-81
2022/10/23 00:28:56;;;;;;;0.47;0.30;;;;;;;22.23;100.00;99031.84;7396240;19;20021;-82
2022/10/23 00:31:24;;;;;;;1.30;0.63;;;;;;;22.35;100.00;99027.25;7392275;19;20022;-82
2022/10/23 00:33:51;;;;;;;0.43;0.20;;;;;;;22.52;100.00;99025.22;7390824;19;20019;-82
2022/10/23 00:36:19;;;;;;;0.50;0.30;;;;;;;22.45;100.00;99031.72;7390205;19;20025;-83
2022/10/23 00:38:45;;;;;;;2.83;0.15;;;;;;;22.12;100.00;99016.03;7393169;19;20365;-81
2022/10/23 00:41:19;;;;;;;0.77;0.45;;;;;;;22.15;100.00;99014.13;7391653;19;20070;-82
2022/10/23 00:44:19;;;;;;;1.35;0.15;;;;;;;22.39;100.00;99025.50;7391773;19;20961;-82
2022/10/23 00:46:45;;;;;;;1.20;0.10;;;;;;;22.43;100.00;99010.94;7388871;19;20022;-82
2022/10/23 00:49:12;;;;;;;0.65;0.00;;;;;;;22.57;100.00;99010.06;7392779;19;20373;-83
2022/10/23 00:51:55;;;;;;;0.90;0.10;;;;;;;21.84;100.00;99013.53;7391638;19;20424;-82
2022/10/23 00:54:24;;;;;;;1.27;0.30;;;;;;;22.35;100.00;99001.72;7394169;19;20369;-83
2022/10/23 00:56:58;;;;;;;0.20;0.20;;;;;;;22.36;100.00;98998.31;7392719;19;20082;-83
2022/10/23 00:59:24;;;;;;;0.20;0.20;;;;;;;22.46;100.00;98999.16;7394115;19;20009;-82
2022/10/23 01:01:51;;;;;;;1.20;0.38;;;;;;;22.63;100.00;98994.91;7391802;19;20378;-82
2022/10/23 01:04:17;;;;;;;0.30;0.20;;;;;;;22.47;100.00;98992.16;7391383;19;20019;-83
2022/10/23 01:07:02;;;;;;;0.73;0.20;;;;;;;22.48;100.00;98990.81;7391189;19;20048;-82
2022/10/23 01:09:50;;;;;;;1.05;0.65;;;;;;;22.44;100.00;98990.47;7394436;19;20025;-82
2022/10/23 01:12:34;;;;;;;0.57;0.50;;;;;;;22.36;100.00;98984.13;7392215;19;20106;-82
2022/10/23 01:15:15;;;;;;;0.38;0.10;;;;;;;22.36;100.00;98981.28;7390539;19;20441;-81
2022/10/23 01:17:48;;;;;;;0.63;0.28;;;;;;;22.21;100.00;98984.22;7391295;19;20018;-82
2022/10/23 01:20:29;;;;;;;0.20;0.20;;;;;;;22.30;100.00;98980.75;7389905;19;20018;-82
2022/10/23 01:23:13;;;;;;;3.58;0.35;;;;;;;22.35;100.00;98965.56;7390642;19;20022;-82
2022/10/23 01:25:51;;;;;;;1.58;0.20;;;;;;;22.07;100.00;98968.78;7389368;19;20465;-83
2022/10/23 01:28:48;;;;;;;2.25;0.82;;;;;;;22.42;100.00;98976.13;7390722;19;20487;-82
2022/10/23 01:31:38;;;;;;;0.30;0.20;;;;;;;22.77;100.00;98970.56;7390973;19;20022;-82
2022/10/23 01:34:19;;;;;;;1.55;0.10;;;;;;;22.23;100.00;98969.44;7390383;19;20386;-82
2022/10/23 01:36:48;;;;;;;0.43;0.43;;;;;;;21.79;100.00;98961.38;7387640;19;20018;-81
2022/10/23 01:39:26;;;;;;;1.83;0.68;;;;;;;22.27;100.00;98959.22;7390048;19;20035;-82
2022/10/23 01:41:58;;;;;;;1.75;0.52;;;;;;;22.32;100.00;98955.41;7386251;19;20014;-82
2022/10/23 01:44:43;;;;;;;2.40;0.45;;;;;;;22.41;100.00;98946.25;7389576;19;20007;-82
2022/10/23 01:47:12;;;;;;;0.80;0.22;;;;;;;22.32;100.00;98948.97;7387604;19;20010;-82
2022/10/23 01:49:58;;;;;;;4.32;0.43;;;;;;;22.51;100.00;98935.75;7393675;19;20031;-81
2022/10/23 01:52:26;;;;;;;0.65;0.10;;;;;;;22.30;100.00;98935.38;7390007;19;20020;-83
2022/10/23 01:54:55;;;;;;;0.77;0.35;;;;;;;22.01;100.00;98928.56;7394349;19;20014;-82
2022/10/23 01:57:24;;;;;;;3.17;0.30;;;;;;;22.47;100.00;98937.50;7393102;19;20723;-82
2022/10/23 01:59:59;;;;;;;1.27;0.23;;;;;;;22.63;100.00;98938.16;7393526;19;20622;-82
2022/10/23 02:02:27;;;;;;;0.98;0.30;;;;;;;22.79;100.00;98930.97;7392689;19;20260;-81
2022/10/23 02:05:16;;;;;;;0.10;0.00;;;;;;;22.29;100.00;98921.75;7397015;19;20469;-82
2022/10/23 02:07:43;;;;;;;6.53;1.33;;;;;;;22.34;100.00;98910.19;7396308;19;20050;-81
2022/10/23 02:10:11;;;;;;;0.25;0.15;;;;;;;22.70;100.00;98921.03;7397046;19;20007;-82
2022/10/23 02:12:49;;;;;;;2.40;0.30;;;;;;;22.56;100.00;98909.22;7397535;19;20011;-82
2022/10/23 02:15:39;;;;;;;0.20;0.20;;;;;;;22.66;100.00;98914.25;7396678;19;20035;-82
2022/10/23 02:18:44;;;;;;;6.80;1.00;;;;;;;22.79;100.00;98911.09;7396581;19;20048;-82
2022/10/23 02:21:15;;;;;;;0.57;0.08;;;;;;;22.87;100.00;98920.31;7396054;19;20524;-81
2022/10/23 02:23:44;;;;;;;;;;;;;;;22.89;100.00;98914.81;7398215;19;20015;-82
2022/10/23 02:26:15;;;;;;;0.63;0.15;;;;;;;22.48;100.00;98905.69;7394132;19;19923;-81
2022/10/23 02:28:49;;;;;;;0.63;0.40;;;;;;;22.53;100.00;98895.44;7399268;19;20018;-81
2022/10/23 02:31:20;;;;;;;0.90;0.25;;;;;;;22.74;100.00;98892.25;7395633;19;20030;-81
2022/10/23 02:33:47;;;;;;;3.60;0.55;;;;;;;22.72;100.00;98892.09;7395784;19;20070;-81
2022/10/23 02:36:14;;;;;;;1.42;1.05;;;;;;;22.68;100.00;98883.22;7394447;19;20097;-82
2022/10/23 02:38:43;;;;;;;1.55;0.73;;;;;;;22.63;100.00;98887.06;7398265;19;20015;-82
2022/10/23 02:41:38;;;;;;;3.30;0.60;;;;;;;22.91;100.00;98878.06;7395582;19;20011;-82
2022/10/23 02:44:23;;;;;;;0.35;0.15;;;;;;;22.83;100.00;98863.94;7396294;19;20018;-81
2022/10/23 02:46:58;;;;;;;1.90;0.55;;;;;;;22.70;100.00;98867.09;7393222;19;20014;-82
2022/10/23 02:49:47;;;;;;;2.75;0.82;;;;;;;22.84;100.00;98868.28;7398343;19;20011;-81
2022/10/23 02:52:33;;;;;;;2.33;0.52;;;;;;;22.86;100.00;98859.19;7396171;19;20464;-82
2022/10/23 02:55:28;;;;;;;0.47;0.35;;;;;;;22.74;100.00;98852.50;7400120;19;20018;-82
2022/10/23 02:58:20;;;;;;;0.50;0.25;;;;;;;22.41;100.00;98849.03;7394164;19;20010;-82
2022/10/23 03:00:55;;;;;;;0.80;0.57;;;;;;;22.39;100.00;98835.41;7395418;19;20011;-81
2022/10/23 03:03:28;;;;;;;1.27;0.80;;;;;;;22.59;100.00;98831.44;7390881;19;20093;-81
2022/10/23 03:05:55;;;;;;;3.35;1.75;;;;;;;22.60;100.00;98844.31;7392687;19;20014;-81
2022/10/23 03:08:21;;;;;;;0.20;0.20;;;;;;;22.55;100.00;98833.94;7396593;19;20086;-81
2022/10/23 03:10:47;;;;;;;2.47;0.40;;;;;;;22.45;100.00;98833.09;7394775;19;20066;-82
2022/10/23 03:13:13;;;;;;;2.20;0.60;;;;;;;22.87;100.00;98837.97;7395031;19;20365;-82
2022/10/23 03:15:42;;;;;;;4.55;1.30;;;;;;;22.80;100.00;98818.94;7393762;19;20014;-81
2022/10/23 03:18:11;;;;;;;0.63;0.38;;;;;;;22.89;100.00;98819.00;7396425;19;20027;-81
2022/10/23 03:20:38;;;;;;;0.57;0.52;;;;;;;22.94;100.00;98809.47;7394213;19;20078;-81
2022/10/23 03:23:04;;;;;;;1.52;0.38;;;;;;;22.91;100.00;98807.81;7392619;19;20504;-81
2022/10/23 03:25:31;;;;;;;0.45;0.20;;;;;;;23.10;100.00;98801.53;7393990;19;20018;-81
2022/10/23 03:27:59;;;;;;;1.77;0.40;;;;;;;23.14;100.00;98804.69;7394678;19;20014;-82
2022/10/23 03:30:25;;;;;;;1.45;0.40;;;;;;;22.97;100.00;98796.19;7394860;19;20086;-81
2022/10/23 03:32:53;;;;;;;5.15;0.82;;;;;;;22.84;100.00;98782.34;7396753;19;20010;-81
2022/10/23 03:35:20;;;;;;;0.98;0.30;;;;;;;22.72;100.00;98775.69;7394399;19;20018;-82
2022/10/23 03:37:46;;;;;;;0.82;0.20;;;;;;;22.61;100.00;98772.00;7393513;19;20035;-81
2022/10/23 03:40:12;;;;;;;2.13;0.85;;;;;;;22.59;100.00;98768.25;7392546;19;20018;-82
2022/10/23 03:42:38;;;;;;;0.63;0.43;;;;;;;22.52;100.00;98761.28;7392821;19;20046;-82
2022/10/23 03:45:05;;;;;;;0.30;0.30;;;;;;;22.38;100.00;98748.78;7393460;19;20432;-81
2022/10/23 03:47:34;;;;;;;0.75;0.45;;;;;;;22.51;100.00;98748.47;7394608;19;20010;-81
2022/10/23 03:50:00;;;;;;;0.65;0.50;;;;;;;22.70;100.00;98744.31;7393943;19;20015;-81
2022/10/23 03:52:26;;;;;;;1.00;0.43;;;;;;;22.86;100.00;98745.59;7392585;19;20014;-82
2022/10/23 03:54:53;;;;;;;0.75;0.35;;;;;;;22.70;100.00;98745.03;7398073;19;20114;-82
2022/10/23 03:57:19;;;;;;;0.32;0.32;;;;;;;22.41;100.00;98739.13;7395147;19;20037;-82
2022/10/23 03:59:45;;;;;;;2.38;1.08;;;;;;;22.43;100.00;98738.53;7398166;19;20010;-82
2022/10/23 04:02:12;;;;;;;3.30;0.65;;;;;;;22.58;100.00;98727.75;7392768;19;20461;-81
2022/10/23 04:04:38;;;;;;;0.17;0.17;;;;;;;22.48;100.00;98724.09;7394024;19;20019;-82
2022/10/23 04:07:04;;;;;;;4.93;0.40;;;;;;;22.72;100.00;98725.34;7390959;19;20015;-81
2022/10/23 04:09:31;;;;;;;4.43;0.52;;;;;;;22.79;100.00;98718.81;7397808;19;20361;-82
2022/10/23 04:11:57;;;;;;;1.05;0.50;;;;;;;22.69;100.00;98722.94;7394469;19;20023;-82
2022/10/23 04:14:27;;;;;;;1.88;0.57;;;;;;;22.71;100.00;98711.72;7392845;19;20018;-81
2022/10/23 04:16:53;;;;;;;1.90;0.50;;;;;;;22.65;100.00;98703.50;7391990;19;20014;-82
2022/10/23 04:19:19;;;;;;;6.43;1.40;;;;;;;22.50;100.00;98704.38;7396564;19;20035;-82
2022/10/23 04:21:46;;;;;;;6.13;0.93;;;;;;;22.29;100.00;98700.47;7395429;19;20022;-88
2022/10/23 04:24:12;;;;;;;0.80;0.60;;;;;;;22.59;100.00;98700.91;7397212;19;20014;-85
2022/10/23 04:26:38;;;;;;;2.55;1.17;;;;;;;22.66;100.00;98681.50;7396336;19;20083;-89
2022/10/23 04:29:04;;;;;;;0.90;0.35;;;;;;;22.56;100.00;98685.03;7398702;19;20046;-82
2022/10/23 04:31:30;;;;;;;9.23;0.80;;;;;;;22.65;100.00;98680.03;7392887;19;20019;-82
2022/10/23 04:33:57;;;;;;;0.40;0.20;;;;;;;22.73;100.00;98677.84;7391706;19;20014;-81
2022/10/23 04:36:30;;;;;;;0.38;0.35;;;;;;;22.68;100.00;98667.47;7390572;19;20082;-79
2022/10/23 04:39:02;;;;;;;0.30;0.20;;;;;;;22.73;100.00;98652.28;7394731;19;20014;-87
2022/10/23 04:41:29;;;;;;;0.85;0.30;;;;;;;22.74;100.00;98650.97;7392511;19;20468;-84
2022/10/23 04:43:55;;;;;;;1.80;0.60;;;;;;;22.50;100.00;98644.06;7389469;19;20010;-82
2022/10/23 04:46:21;;;;;;;0.30;0.17;;;;;;;22.67;100.00;98629.09;7389026;19;20018;-83
2022/10/23 04:48:48;;;;;;;0.95;0.63;;;;;;;22.79;100.00;98621.53;7390514;19;20045;-83
2022/10/23 04:51:17;;;;;;;1.08;0.20;;;;;;;22.88;100.00;98606.63;7388278;19;20024;-83
2022/10/23 04:54:04;;;;;;;0.20;0.17;;;;;;;22.89;100.00;98602.47;7389571;19;20021;-83
2022/10/23 04:56:49;;;;;;;4.28;0.52;;;;;;;22.79;100.00;98596.75;7389611;19;20053;-83
2022/10/23 04:59:18;;;;;;;3.38;0.45;;;;;;;22.69;100.00;98595.19;7392092;19;20017;-83
2022/10/23 05:01:45;;;;;;;1.88;0.98;;;;;;;22.78;100.00;98594.50;7390392;19;20021;-82
2022/10/23 05:04:12;;;;;;;0.30;0.28;;;;;;;22.47;100.00;98597.75;7387488;19;20022;-83
2022/10/23 05:07:00;;;;;;;1.15;1.08;;;;;;;22.57;100.00;98595.69;7385349;19;20018;-83
2022/10/23 05:09:39;;;;;;;0.88;0.35;;;;;;;22.46;100.00;98596.22;7390545;19;20580;-82
2022/10/23 05:12:15;;;;;;;4.43;0.50;;;;;;;22.43;100.00;98600.25;7387312;19;20022;-83
2022/10/23 05:14:41;;;;;;;0.60;0.30;;;;;;;22.45;100.00;98605.34;7389668;19;20041;-83
2022/10/23 05:17:21;;;;;;;0.17;0.17;;;;;;;22.68;100.00;98617.16;7388113;19;20010;-84
2022/10/23 05:19:52;;;;;;;1.88;0.77;;;;;;;22.83;100.00;98616.16;7396746;19;20034;-83
2022/10/23 05:22:22;;;;;;;6.47;1.17;;;;;;;22.83;100.00;98616.16;7392843;19;20022;-83
2022/10/23 05:24:53;;;;;;;1.48;0.73;;;;;;;22.66;100.00;98607.72;7395923;19;20507;-83
2022/10/23 05:27:23;;;;;;;1.08;0.43;;;;;;;22.69;100.00;98615.81;7390528;19;20418;-83
2022/10/23 05:29:51;;;;;;;0.20;0.20;;;;;;;22.68;100.00;98605.78;7395980;19;20022;-84
2022/10/23 05:32:20;;;;;;;1.63;0.65;;;;;;;22.57;100.00;98601.38;7391566;19;20014;-83
2022/10/23 05:34:47;;;;;;;0.77;0.40;;;;;;;22.72;100.00;98605.38;7391169;19;20021;-84
2022/10/23 05:37:15;;;;;;;0.85;0.52;;;;;;;22.72;100.00;98611.78;7389431;19;20017;-84
2022/10/23 05:39:42;;;;;;;0.35;0.35;;;;;;;22.65;100.00;98611.91;7394912;19;20011;-84
2022/10/23 05:42:13;;;;;;;0.90;0.30;;;;;;;22.74;100.00;98619.72;7389839;19;20078;-84
2022/10/23 05:44:40;;;;;;;0.20;0.05;;;;;;;22.63;100.00;98614.59;7390895;19;20357;-83
2022/10/23 05:47:14;;;;;;;0.45;0.20;;;;;;;22.74;100.00;98616.91;7390362;19;20373;-84
2022/10/23 05:49:40;;;;;;;0.75;0.20;;;;;;;22.48;100.00;98619.09;7395947;19;20014;-82
2022/10/23 05:52:23;;;;;;;0.82;0.30;;;;;;;22.50;100.00;98610.75;7390056;19;20010;-83
2022/10/23 05:55:05;;;;;;;1.40;0.25;;;;;;;22.54;100.00;98608.22;7394088;19;20019;-84
2022/10/23 05:57:51;;;;;;;1.75;0.10;;;;;;;22.54;100.00;98602.53;7391311;19;20465;-84
2022/10/23 06:00:27;;;;;;;0.00;0.00;;;;;;;22.82;100.00;98592.72;7390608;19;20018;-83
2022/10/23 06:03:11;;;;;;;1.27;0.20;;;;;;;22.85;100.00;98585.84;7389010;19;20022;-82
2022/10/23 06:05:48;;;;;;;0.40;0.30;;;;;;;22.52;100.00;98598.81;7390640;19;20015;-84
2022/10/23 06:08:20;;;;;;;0.73;0.32;;;;;;;22.33;100.00;98599.44;7391126;19;20096;-83
2022/10/23 06:10:49;;;;;;;1.35;0.40;;;;;;;22.63;100.00;98603.25;7390479;19;20019;-83
2022/10/23 06:13:15;;;;;;;0.10;0.00;;;;;;;22.63;100.00;98601.88;7390652;19;20454;-83
2022/10/23 06:15:42;;;;;;;1.02;0.13;;;;;;;22.48;100.00;98610.59;7389372;19;20353;-82
2022/10/23 06:18:17;;;;;;;2.80;0.65;;;;;;;22.45;100.00;98617.44;7390300;19;20018;-83
2022/10/23 06:20:54;;;;;;;0.20;0.20;;;;;;;22.32;100.00;98626.31;7389745;19;20011;-84
2022/10/23 06:23:24;;;;;;;0.95;0.32;;;;;;;22.57;100.00;98629.00;7389747;19;20003;-82
2022/10/23 06:26:22;;;;;;;2.97;0.40;;;;;;;22.39;100.00;98622.63;7387590;19;20019;-82
2022/10/23 06:29:07;;;;;;;0.93;0.50;;;;;;;22.28;100.00;98611.81;7395341;19;20018;-84
2022/10/23 06:31:33;;;;;;;0.85;0.30;;;;;;;22.53;100.00;98608.81;7391307;19;20053;-85
2022/10/23 06:34:01;;;;;;;2.83;0.73;;;;;;;22.49;100.00;98605.66;7393450;19;20536;-88
2022/10/23 06:36:29;;;;;;;17.63;0.50;;;;;;;22.52;100.00;98599.56;7392336;19;20037;-93
2022/10/23 06:39:04;;;;;;;0.52;0.22;;;;;;;22.53;100.00;98595.38;7396704;19;20034;-94
2022/10/23 06:41:49;;;;;;;2.15;0.38;;;;;;;22.56;100.00;98599.91;7394864;19;20019;-93
2022/10/23 06:44:35;;;;;;;0.57;0.40;;;;;;;22.63;100.00;98580.53;7393668;19;20461;-93
2022/10/23 06:47:12;;;;;;;0.10;0.10;;;;;;;22.56;100.00;98584.94;7392215;19;20464;-94
2022/10/23 06:49:57;;;;;;;2.50;0.57;;;;;;;22.55;100.00;98583.44;7406027;19;20022;-93
2022/10/23 06:52:24;;;;;;;3.00;1.00;;;;;;;22.54;100.00;98585.53;7401550;19;20403;-94
2022/10/23 06:54:50;;;;;;;0.93;0.43;;;;;;;22.55;100.00;98581.34;7401385;19;20009;-94
2022/10/23 06:57:20;;;;;;;0.68;0.65;;;;;;;22.20;100.00;98582.06;7397700;19;20066;-95
2022/10/23 06:59:46;;;;;;;0.88;0.43;;;;;;;22.12;100.00;98567.19;7405118;19;20014;-93
2022/10/23 07:02:12;;;;;;;0.73;0.47;;;;;;;22.26;100.00;98566.25;7400391;19;20479;-93
2022/10/23 07:04:40;;;;;;;3.95;0.47;;;;;;;22.46;100.00;98555.75;7400652;19;20099;-93
2022/10/23 07:07:11;;;;;;;1.38;0.47;;;;;;;22.74;100.00;98551.59;7396030;19;20010;-93
2022/10/23 07:09:48;;;;;;;3.97;0.73;;;;;;;23.07;100.00;98535.72;7404815;19;20070;-91
2022/10/23 07:12:38;;;;;;;0.63;0.63;;;;;;;22.98;100.00;98525.06;7400312;19;20010;-91
2022/10/23 07:15:23;;;;;;;2.50;0.47;;;;;;;22.93;100.00;98518.34;7399561;19;20251;-92
2022/10/23 07:17:49;;;;;;;0.20;0.20;;;;;;;22.83;100.00;98509.03;7400597;19;20481;-92
2022/10/23 07:20:16;;;;;;;1.90;0.57;;;;;;;22.91;100.00;98500.41;7400223;19;20026;-93
2022/10/23 07:22:42;;;;;;;0.43;0.15;;;;;;;22.86;100.00;98478.72;7400055;19;20010;-96
2022/10/23 07:25:12;;;;;;;1.00;0.55;;;;;;;22.95;100.00;98475.91;7405238;19;20022;-96
2022/10/23 07:27:39;;;;;;;0.40;0.20;;;;;;;22.94;100.00;98482.16;7408341;19;20051;-96
2022/10/23 07:30:09;;;;;;;0.30;0.08;;;;;;;23.25;100.00;98491.66;7402634;19;20037;-96
2022/10/23 07:32:43;;;;;;;0.15;0.10;;;;;;;23.21;100.00;98486.44;7402575;19;20007;-96
2022/10/23 07:35:39;;;;;;;0.22;0.13;;;;;;;23.31;100.00;98494.94;7403537;19;20014;-96
2022/10/23 07:38:17;;;;;;;0.52;0.35;;;;;;;23.31;100.00;98497.78;7410095;19;20370;-96
2022/10/23 07:40:48;;;;;;;1.60;0.95;;;;;;;23.57;100.00;98494.09;7410391;19;20007;-96
2022/10/23 07:43:19;;;;;;;0.32;0.10;;;;;;;23.57;100.00;98499.78;7400654;19;20075;-96
2022/10/23 07:45:47;;;;;;;0.20;0.20;;;;;;;23.66;100.00;98499.03;7399794;19;20006;-96
2022/10/23 07:48:23;;;;;;;2.05;0.55;;;;;;;23.55;100.00;98501.72;7401116;19;20073;-96
2022/10/23 07:51:09;;;;;;;0.08;0.00;;;;;;;23.24;100.00;98502.25;7399748;19;20011;-95
2022/10/23 07:53:40;;;;;;;0.30;0.30;;;;;;;23.18;100.00;98498.22;7401655;19;20006;-94
2022/10/23 07:56:30;;;;;;;0.20;0.20;;;;;;;23.37;100.00;98500.38;7397516;19;20028;-96
2022/10/23 07:59:22;;;;;;;0.75;0.10;;;;;;;23.23;100.00;98486.56;7398181;19;20028;-96
2022/10/23 08:01:53;;;;;;;0.85;0.20;;;;;;;23.35;100.00;98489.59;7410064;19;20003;-96
2022/10/23 08:04:21;;;;;;;0.47;0.20;;;;;;;23.25;100.00;98483.13;7414296;19;20021;-57
2022/10/23 08:06:59;;;;;;;3.40;0.32;;;;;;;23.34;100.00;98488.88;7393994;19;20423;-57
2022/10/23 08:09:27;;;;;;;3.08;0.30;;;;;;;23.19;100.00;98479.84;7396780;19;20463;-57
2022/10/23 08:11:53;;;;;;;0.68;0.30;;;;;;;23.41;100.00;98473.00;7395452;19;20010;-57
2022/10/23 08:14:22;;;;;;;0.08;0.08;;;;;;;23.57;100.00;98459.22;7393078;19;20010;-57
2022/10/23 08:16:48;;;;;;;3.50;0.30;;;;;;;23.37;100.00;98469.84;7392157;19;20014;-57
2022/10/23 08:19:17;;;;;;;1.00;0.47;;;;;;;23.64;100.00;98473.31;7396170;19;20027;-56
2022/10/23 08:21:45;;;;;;;0.22;0.03;;;;;;;23.71;100.00;98463.88;7392021;19;20018;-57
2022/10/23 08:24:13;;;;;;;0.25;0.10;;;;;;;23.72;100.00;98465.34;7397766;19;20010;-57
2022/10/23 08:26:41;;;;;;;1.20;0.22;;;;;;;23.57;100.00;98457.13;7394404;19;20014;-57
2022/10/23 08:29:09;;;;;;;0.40;0.40;;;;;;;23.62;100.00;98453.25;7397877;19;20353;-57
2022/10/23 08:31:35;;;;;;;0.28;0.28;;;;;;;23.58;100.00;98450.13;7394428;19;20022;-57
2022/10/23 08:34:27;;;;;;;0.98;0.30;;;;;;;23.94;100.00;98452.00;7393903;19;20030;-57
2022/10/23 08:36:54;;;;;;;0.10;0.00;;;;;;;23.92;100.00;98455.44;7394555;19;20365;-57
2022/10/23 08:39:20;;;;;;;0.30;0.20;;;;;;;23.82;100.00;98446.19;7398218;19;20078;-57
2022/10/23 08:42:36;;;;;;;0.10;0.00;;;;;;;23.45;100.00;98450.56;7394457;19;20014;-57
2022/10/23 08:45:13;;;;;;;;;;;;;;;23.20;100.00;98455.75;7394300;19;20526;-57
2022/10/23 08:47:49;;;;;;;0.30;0.28;;;;;;;22.93;100.00;98438.84;7394902;19;19926;-57
2022/10/23 08:51:11;;;;;;;0.10;0.10;;;;;;;22.92;100.00;98436.59;7392136;19;20014;-57
2022/10/23 08:53:45;;;;;;;0.00;0.00;;;;;;;22.80;100.00;98427.16;7394750;19;20097;-57
2022/10/23 08:56:27;;;;;;;0.10;0.00;;;;;;;22.72;100.00;98420.88;7395180;19;20432;-57
2022/10/23 08:59:00;;;;;;;4.90;0.20;;;;;;;22.96;100.00;98397.13;7397576;19;20038;-58
2022/10/23 09:01:50;;;;;;;0.70;0.47;;;;;;;23.10;100.00;98384.00;7395865;19;20364;-58
2022/10/23 09:04:16;;;;;;;4.60;0.45;;;;;;;23.10;100.00;98389.69;7394528;19;20084;-58
2022/10/23 09:06:49;;;;;;;1.08;0.10;;;;;;;23.10;100.00;98384.00;7394843;19;20015;-58
2022/10/23 09:09:18;;;;;;;0.35;0.35;;;;;;;22.89;100.00;98383.84;7397934;19;20031;-57
2022/10/23 09:12:15;;;;;;;0.20;0.20;;;;;;;22.96;100.00;98374.41;7394316;19;20027;-59
2022/10/23 09:14:51;;;;;;;0.30;0.20;;;;;;;22.61;100.00;98371.84;7394775;19;20466;-59
2022/10/23 09:17:20;;;;;;;0.15;0.03;;;;;;;22.58;100.00;98375.13;7394246;19;20032;-59
2022/10/23 09:19:52;;;;;;;1.00;0.43;;;;;;;22.27;100.00;98357.09;7398199;19;20365;-59
2022/10/23 09:22:19;;;;;;;0.32;0.25;;;;;;;22.42;100.00;98354.75;7393955;19;20019;-59
2022/10/23 09:24:45;;;;;;;0.20;0.20;;;;;;;22.63;100.00;98349.28;7399132;19;20058;-59
2022/10/23 09:27:15;;;;;;;1.35;0.52;;;;;;;22.72;100.00;98338.56;7394929;19;20003;-59
2022/10/23 09:29:54;;;;;;;0.47;0.30;;;;;;;22.67;100.00;98331.09;7397670;19;20490;-59
2022/10/23 09:32:31;;;;;;;4.68;0.95;;;;;;;22.48;100.00;98334.63;7394097;19;20474;-59
2022/10/23 09:34:58;;;;;;;0.65;0.35;;;;;;;22.43;100.00;98336.41;7394010;19;20482;-59
2022/10/23 09:37:27;;;;;;;0.17;0.17;;;;;;;22.58;100.00;98327.63;7392596;19;20073;-59
2022/10/23 09:40:19;;;;;;;0.80;0.30;;;;;;;22.70;100.00;98338.44;7398406;19;20360;-59
2022/10/23 09:42:53;;;;;;;0.00;0.00;;;;;;;22.60;100.00;98333.47;7393164;19;20010;-59
2022/10/23 09:45:29;;;;;;;0.85;0.10;;;;;;;22.58;100.00;98341.81;7394201;19;20046;-59
2022/10/23 09:48:11;;;;;;;0.47;0.10;;;;;;;22.56;100.00;98341.66;7393313;19;20010;-60
2022/10/23 09:50:52;;;;;;;0.75;0.40;;;;;;;22.27;100.00;98318.16;7394592;19;20014;-59
2022/10/23 09:53:46;;;;;;;0.20;0.15;;;;;;;22.61;100.00;98325.69;7392888;19;20014;-60
2022/10/23 09:56:29;;;;;;;0.20;0.15;;;;;;;22.85;100.00;98318.25;7395407;19;20343;-59
2022/10/23 09:58:55;;;;;;;0.20;0.10;;;;;;;22.76;100.00;98316.16;7396170;19;20078;-59
2022/10/23 10:01:27;;;;;;;1.08;0.38;;;;;;;23.08;100.00;98307.19;7393914;19;20018;-59
2022/10/23 10:04:01;;;;;;;1.90;0.30;;;;;;;23.33;100.00;98294.16;7390235;19;20095;-59
2022/10/23 10:06:31;;;;;;;0.10;0.00;;;;;;;23.44;100.00;98280.66;7391781;19;20459;-59
2022/10/23 10:09:01;;;;;;;0.10;0.00;;;;;;;23.49;100.00;98268.25;7394378;19;20026;-59
2022/10/23 10:11:27;;;;;;;0.32;0.20;;;;;;;23.69;100.00;98250.50;7393001;19;20507;-59
2022/10/23 10:14:05;;;;;;;0.10;0.10;;;;;;;23.72;100.00;98249.28;7392053;19;20347;-59
2022/10/23 10:16:53;;;;;;;0.20;0.20;;;;;;;23.76;100.00;98243.88;7393277;19;20006;-59
2022/10/23 10:19:38;;;;;;;0.20;0.20;;;;;;;23.84;100.00;98213.19;7395774;19;20035;-59
2022/10/23 10:22:23;;;;;;;0.10;0.10;;;;;;;23.98;100.00;98185.69;7391849;19;20472;-58
2022/10/23 10:25:20;;;;;;;0.10;0.10;;;;;;;23.97;100.00;98189.16;7404949;19;20021;-58
2022/10/23 10:27:46;;;;;;;1.35;0.13;;;;;;;23.93;100.00;98208.78;7401428;19;20027;-58
2022/10/23 10:30:19;;;;;;;0.03;0.00;;;;;;;24.07;100.00;98216.22;7400748;19;20019;-58
2022/10/23 10:33:12;;;;;;;0.45;0.00;;;;;;;24.15;100.00;98212.44;7400034;19;20336;-58
2022/10/23 10:35:53;;;;;;;0.10;0.00;;;;;;;23.88;100.00;98210.63;7400651;19;20021;-57
2022/10/23 10:38:39;;;;;;;0.10;0.00;;;;;;;24.07;100.00;98210.53;7400813;19;20014;-57
2022/10/23 10:41:36;;;;;;;0.10;0.00;;;;;;;24.10;100.00;98211.41;7399365;19;20010;-57
2022/10/23 10:44:11;;;;;;;0.20;0.20;;;;;;;24.07;100.00;98193.47;7397128;19;20011;-57
2022/10/23 10:47:16;;;;;;;0.25;0.25;;;;;;;24.26;100.00;98208.88;7399907;19;20085;-57
2022/10/23 10:50:04;;;;;;;0.00;0.00;;;;;;;24.43;100.00;98202.94;7401845;19;20376;-56
2022/10/23 10:53:25;;;;;;;0.00;0.00;;;;;;;24.46;100.00;98215.91;7398957;19;20011;-57
2022/10/23 10:55:54;;;;;;;0.00;0.00;;;;;;;24.38;100.00;98206.84;7400401;19;20474;-56
2022/10/23 10:58:37;;;;;;;0.00;0.00;;;;;;;24.33;100.00;98207.94;7400230;19;20070;-56
2022/10/23 11:01:14;;;;;;;0.00;0.00;;;;;;;24.02;100.00;98202.28;7399157;19;20078;-56
2022/10/23 11:03:50;;;;;;;0.10;0.00;;;;;;;24.08;100.00;98199.91;7395542;19;20018;-56
2022/10/23 11:06:21;;;;;;;7.32;0.45;;;;;;;23.85;100.00;98177.69;7398330;19;20035;-56
2022/10/23 11:08:48;;;;;;;0.10;0.10;;;;;;;24.22;100.00;98163.09;7401765;19;20026;-56
2022/10/23 11:11:25;;;;;;;0.38;0.10;;;;;;;24.27;100.00;98159.91;7399489;19;20006;-56
2022/10/23 11:13:52;;;;;;;0.20;0.10;;;;;;;24.26;100.00;98146.28;7397770;19;20421;-56
2022/10/23 11:16:34;;;;;;;0.00;0.00;;;;;;;24.22;100.00;98134.63;7397924;19;20021;-56
2022/10/23 11:19:31;;;;;;;0.10;0.10;;;;;;;24.31;100.00;98134.56;7401271;19;20017;-56
2022/10/23 11:22:09;;;;;;;0.28;0.20;;;;;;;24.24;100.00;98144.06;7398038;19;20010;-56
2022/10/23 11:24:44;;;;;;;0.10;0.00;;;;;;;24.59;100.00;98133.56;7398164;19;20491;-55
2022/10/23 11:27:35;;;;;;;4.53;0.52;;;;;;;24.66;100.00;98140.38;7397554;19;20021;-56
2022/10/23 11:30:15;;;;;;;0.70;0.10;;;;;;;24.45;100.00;98157.53;7399307;19;20094;-56
2022/10/23 11:32:56;;;;;;;0.10;0.00;;;;;;;24.37;100.00;98162.66;7397886;19;20011;-56
2022/10/23 11:35:34;;;;;;;0.40;0.35;;;;;;;24.61;100.00;98164.25;7395690;19;20034;-56
2022/10/23 11:38:13;;;;;;;0.57;0.20;;;;;;;24.46;100.00;98154.06;7398279;19;20010;-56
2022/10/23 11:40:49;;;;;;;0.10;0.03;;;;;;;24.48;100.00;98142.03;7395272;19;20471;-56
2022/10/23 11:43:33;;;;;;;0.10;0.00;;;;;;;24.15;100.00;98139.19;7395645;19;20018;-56
2022/10/23 11:46:24;;;;;;;0.25;0.25;;;;;;;24.18;100.00;98142.91;7398117;19;20011;-55
2022/10/23 11:48:51;;;;;;;0.20;0.20;;;;;;;24.33;100.00;98128.25;7398784;19;20373;-56
2022/10/23 11:51:39;;;;;;;0.20;0.13;;;;;;;24.34;100.00;98124.06;7397268;19;20014;-56
2022/10/23 11:54:26;;;;;;;0.77;0.43;;;;;;;24.24;100.00;98135.53;7400654;19;20014;-56
2022/10/23 11:57:14;;;;;;;2.28;0.30;;;;;;;24.54;100.00;98126.09;7398180;19;20077;-55
2022/10/23 11:59:46;;;;;;;0.15;0.03;;;;;;;25.01;100.00;98132.69;7400248;19;20041;-56
2022/10/23 12:02:27;;;;;;;0.20;0.20;;;;;;;25.22;100.00;98126.13;7396711;19;20015;-56